sensor_id;sensor_type;location;lat;lon;timestamp;P1;durP1;ratioP1;P2;durP2;ratioP2
41466;SDS011;72625;53.700;19.958;2024-03-22T00:03:06;35.40;;;32.60;;
41466;SDS011;72625;53.700;19.958;2024-03-22T00:08:47;40.20;;;37.00;;
41466;SDS011;72625;53.700;19.958;2024-03-22T00:13:50;42.20;;;38.90;;
41466;SDS011;72625;53.700;19.958;2024-03-22T00:19:07;42.80;;;39.30;;
41466;SDS011;72625;53.700;19.958;2024-03-22T00:24:11;31.70;;;29.10;;
41466;SDS011;72625;53.700;19.958;2024-03-22T00:29:25;41.70;;;38.30;;
41466;SDS011;72625;53.700;19.958;2024-03-22T00:34:29;38.90;;;35.80;;
41466;SDS011;72625;53.700;19.958;2024-03-22T00:39:35;42.10;;;38.60;;
41466;SDS011;72625;53.700;19.958;2024-03-22T00:44:38;43.10;;;39.40;;
41466;SDS011;72625;53.700;19.958;2024-03-22T00:49:42;41.60;;;38.30;;
41466;SDS011;72625;53.700;19.958;2024-03-22T01:00:34;43.80;;;40.00;;
41466;SDS011;72625;53.700;19.958;2024-03-22T01:05:47;48.10;;;43.70;;
41466;SDS011;72625;53.700;19.958;2024-03-22T01:10:50;41.30;;;38.00;;
41466;SDS011;72625;53.700;19.958;2024-03-22T01:16:14;43.70;;;40.10;;
41466;SDS011;72625;53.700;19.958;2024-03-22T01:21:17;38.30;;;35.10;;
41466;SDS011;72625;53.700;19.958;2024-03-22T01:26:27;36.70;;;33.70;;
41466;SDS011;72625;53.700;19.958;2024-03-22T01:31:47;40.10;;;36.90;;
41466;SDS011;72625;53.700;19.958;2024-03-22T01:48:30;36.10;;;33.30;;
41466;SDS011;72625;53.700;19.958;2024-03-22T01:53:54;38.20;;;35.10;;
41466;SDS011;72625;53.700;19.958;2024-03-22T01:59:19;34.70;;;31.90;;
41466;SDS011;72625;53.700;19.958;2024-03-22T02:04:41;24.80;;;22.80;;
41466;SDS011;72625;53.700;19.958;2024-03-22T02:09:45;34.90;;;32.20;;
41466;SDS011;72625;53.700;19.958;2024-03-22T02:14:51;33.10;;;30.60;;
41466;SDS011;72625;53.700;19.958;2024-03-22T02:25:17;28.70;;;26.40;;
41466;SDS011;72625;53.700;19.958;2024-03-22T02:30:23;26.80;;;24.60;;
41466;SDS011;72625;53.700;19.958;2024-03-22T02:35:27;25.60;;;23.50;;
41466;SDS011;72625;53.700;19.958;2024-03-22T02:46:35;28.60;;;26.40;;
41466;SDS011;72625;53.700;19.958;2024-03-22T02:51:39;25.00;;;23.10;;
41466;SDS011;72625;53.700;19.958;2024-03-22T02:56:42;22.70;;;20.90;;
41466;SDS011;72625;53.700;19.958;2024-03-22T03:01:53;21.60;;;19.90;;
41466;SDS011;72625;53.700;19.958;2024-03-22T03:07:01;20.80;;;19.20;;
41466;SDS011;72625;53.700;19.958;2024-03-22T03:12:04;21.00;;;19.40;;
41466;SDS011;72625;53.700;19.958;2024-03-22T03:17:14;21.80;;;20.10;;
41466;SDS011;72625;53.700;19.958;2024-03-22T03:22:27;20.20;;;18.70;;
41466;SDS011;72625;53.700;19.958;2024-03-22T03:27:31;20.90;;;19.20;;
41466;SDS011;72625;53.700;19.958;2024-03-22T03:44:04;20.20;;;18.60;;
41466;SDS011;72625;53.700;19.958;2024-03-22T03:49:51;18.30;;;16.90;;
41466;SDS011;72625;53.700;19.958;2024-03-22T04:00:40;19.10;;;17.60;;
41466;SDS011;72625;53.700;19.958;2024-03-22T04:05:55;19.70;;;18.20;;
41466;SDS011;72625;53.700;19.958;2024-03-22T04:11:03;20.00;;;18.50;;
41466;SDS011;72625;53.700;19.958;2024-03-22T04:16:09;18.30;;;16.90;;
41466;SDS011;72625;53.700;19.958;2024-03-22T04:21:16;18.90;;;17.40;;
41466;SDS011;72625;53.700;19.958;2024-03-22T04:31:33;19.40;;;17.90;;
41466;SDS011;72625;53.700;19.958;2024-03-22T04:36:37;18.70;;;17.30;;
41466;SDS011;72625;53.700;19.958;2024-03-22T04:41:43;14.40;;;13.40;;
41466;SDS011;72625;53.700;19.958;2024-03-22T04:58:06;18.40;;;16.90;;
41466;SDS011;72625;53.700;19.958;2024-03-22T05:03:12;20.40;;;18.70;;
41466;SDS011;72625;53.700;19.958;2024-03-22T05:08:19;26.10;;;23.80;;
41466;SDS011;72625;53.700;19.958;2024-03-22T05:13:22;25.80;;;23.60;;
41466;SDS011;72625;53.700;19.958;2024-03-22T05:18:29;23.00;;;21.00;;
41466;SDS011;72625;53.700;19.958;2024-03-22T05:29:04;24.50;;;22.30;;
41466;SDS011;72625;53.700;19.958;2024-03-22T05:34:10;23.00;;;21.10;;
41466;SDS011;72625;53.700;19.958;2024-03-22T05:39:19;26.20;;;24.00;;
41466;SDS011;72625;53.700;19.958;2024-03-22T05:44:22;25.30;;;23.20;;
41466;SDS011;72625;53.700;19.958;2024-03-22T05:49:37;21.90;;;20.10;;
41466;SDS011;72625;53.700;19.958;2024-03-22T05:54:40;19.80;;;18.30;;
41466;SDS011;72625;53.700;19.958;2024-03-22T06:00:00;20.90;;;19.20;;
41466;SDS011;72625;53.700;19.958;2024-03-22T06:05:06;25.70;;;23.40;;
41466;SDS011;72625;53.700;19.958;2024-03-22T06:10:21;19.70;;;18.00;;
41466;SDS011;72625;53.700;19.958;2024-03-22T06:15:25;21.10;;;19.40;;
41466;SDS011;72625;53.700;19.958;2024-03-22T06:20:48;21.10;;;19.30;;
41466;SDS011;72625;53.700;19.958;2024-03-22T06:26:11;23.40;;;21.40;;
41466;SDS011;72625;53.700;19.958;2024-03-22T06:31:43;21.60;;;19.90;;
41466;SDS011;72625;53.700;19.958;2024-03-22T06:36:50;20.40;;;18.70;;
41466;SDS011;72625;53.700;19.958;2024-03-22T06:41:54;20.10;;;18.40;;
41466;SDS011;72625;53.700;19.958;2024-03-22T06:47:07;20.20;;;18.40;;
41466;SDS011;72625;53.700;19.958;2024-03-22T07:08:56;34.10;;;31.50;;
41466;SDS011;72625;53.700;19.958;2024-03-22T07:13:59;24.10;;;22.30;;
41466;SDS011;72625;53.700;19.958;2024-03-22T07:19:11;24.80;;;22.90;;
41466;SDS011;72625;53.700;19.958;2024-03-22T07:24:15;28.60;;;26.40;;
41466;SDS011;72625;53.700;19.958;2024-03-22T07:29:29;27.60;;;25.40;;
41466;SDS011;72625;53.700;19.958;2024-03-22T07:34:33;26.60;;;24.50;;
41466;SDS011;72625;53.700;19.958;2024-03-22T07:39:45;26.10;;;23.90;;
41466;SDS011;72625;53.700;19.958;2024-03-22T07:45:03;27.10;;;25.00;;
41466;SDS011;72625;53.700;19.958;2024-03-22T07:50:09;33.20;;;30.40;;
41466;SDS011;72625;53.700;19.958;2024-03-22T07:55:13;32.80;;;29.90;;
41466;SDS011;72625;53.700;19.958;2024-03-22T08:00:20;30.70;;;28.00;;
41466;SDS011;72625;53.700;19.958;2024-03-22T08:05:32;27.50;;;25.10;;
41466;SDS011;72625;53.700;19.958;2024-03-22T08:10:47;32.60;;;29.80;;
41466;SDS011;72625;53.700;19.958;2024-03-22T08:15:53;27.80;;;25.50;;
41466;SDS011;72625;53.700;19.958;2024-03-22T08:21:06;22.70;;;20.80;;
41466;SDS011;72625;53.700;19.958;2024-03-22T08:26:09;23.10;;;21.20;;
41466;SDS011;72625;53.700;19.958;2024-03-22T08:31:13;24.80;;;22.80;;
41466;SDS011;72625;53.700;19.958;2024-03-22T08:41:23;22.00;;;19.90;;
41466;SDS011;72625;53.700;19.958;2024-03-22T08:46:26;22.80;;;20.80;;
41466;SDS011;72625;53.700;19.958;2024-03-22T08:51:30;18.20;;;16.70;;
41466;SDS011;72625;53.700;19.958;2024-03-22T08:56:34;16.20;;;14.90;;
41466;SDS011;72625;53.700;19.958;2024-03-22T09:01:37;17.20;;;15.80;;
41466;SDS011;72625;53.700;19.958;2024-03-22T09:06:41;20.40;;;18.70;;
41466;SDS011;72625;53.700;19.958;2024-03-22T09:12:04;19.70;;;18.20;;
41466;SDS011;72625;53.700;19.958;2024-03-22T09:17:15;16.60;;;15.30;;
41466;SDS011;72625;53.700;19.958;2024-03-22T09:22:19;18.00;;;16.60;;
41466;SDS011;72625;53.700;19.958;2024-03-22T09:27:34;18.10;;;16.60;;
41466;SDS011;72625;53.700;19.958;2024-03-22T09:32:37;18.40;;;16.90;;
41466;SDS011;72625;53.700;19.958;2024-03-22T09:37:50;20.30;;;18.50;;
41466;SDS011;72625;53.700;19.958;2024-03-22T09:43:04;19.20;;;17.70;;
41466;SDS011;72625;53.700;19.958;2024-03-22T09:48:10;18.50;;;17.00;;
41466;SDS011;72625;53.700;19.958;2024-03-22T09:53:22;18.80;;;17.20;;
41466;SDS011;72625;53.700;19.958;2024-03-22T09:58:48;22.50;;;20.80;;
41466;SDS011;72625;53.700;19.958;2024-03-22T10:03:55;23.30;;;21.50;;
41466;SDS011;72625;53.700;19.958;2024-03-22T10:08:59;32.80;;;30.50;;
41466;SDS011;72625;53.700;19.958;2024-03-22T10:14:09;23.00;;;21.30;;
41466;SDS011;72625;53.700;19.958;2024-03-22T10:19:32;27.60;;;25.50;;
41466;SDS011;72625;53.700;19.958;2024-03-22T10:24:47;23.80;;;21.90;;
41466;SDS011;72625;53.700;19.958;2024-03-22T10:29:56;19.90;;;18.30;;
41466;SDS011;72625;53.700;19.958;2024-03-22T10:35:04;21.00;;;19.30;;
41466;SDS011;72625;53.700;19.958;2024-03-22T10:40:18;22.70;;;20.80;;
41466;SDS011;72625;53.700;19.958;2024-03-22T10:45:23;24.10;;;22.00;;
41466;SDS011;72625;53.700;19.958;2024-03-22T10:50:31;22.50;;;20.70;;
41466;SDS011;72625;53.700;19.958;2024-03-22T10:55:49;23.70;;;21.70;;
41466;SDS011;72625;53.700;19.958;2024-03-22T11:00:58;27.80;;;25.10;;
41466;SDS011;72625;53.700;19.958;2024-03-22T11:06:30;24.80;;;22.70;;
41466;SDS011;72625;53.700;19.958;2024-03-22T11:11:37;23.40;;;21.50;;
41466;SDS011;72625;53.700;19.958;2024-03-22T11:16:46;21.90;;;20.20;;
41466;SDS011;72625;53.700;19.958;2024-03-22T11:22:27;21.20;;;19.60;;
41466;SDS011;72625;53.700;19.958;2024-03-22T11:27:33;22.50;;;20.60;;
41466;SDS011;72625;53.700;19.958;2024-03-22T11:32:39;21.70;;;20.00;;
41466;SDS011;72625;53.700;19.958;2024-03-22T11:37:50;20.30;;;18.60;;
41466;SDS011;72625;53.700;19.958;2024-03-22T11:42:54;20.80;;;18.90;;
41466;SDS011;72625;53.700;19.958;2024-03-22T11:48:08;20.00;;;18.40;;
41466;SDS011;72625;53.700;19.958;2024-03-22T11:53:12;22.10;;;20.40;;
41466;SDS011;72625;53.700;19.958;2024-03-22T11:58:18;19.20;;;17.80;;
41466;SDS011;72625;53.700;19.958;2024-03-22T12:03:24;17.50;;;16.30;;
41466;SDS011;72625;53.700;19.958;2024-03-22T12:08:28;18.20;;;16.90;;
41466;SDS011;72625;53.700;19.958;2024-03-22T12:13:31;16.40;;;15.20;;
41466;SDS011;72625;53.700;19.958;2024-03-22T12:18:37;14.30;;;13.30;;
41466;SDS011;72625;53.700;19.958;2024-03-22T12:23:41;14.10;;;13.10;;
41466;SDS011;72625;53.700;19.958;2024-03-22T12:28:44;12.50;;;11.60;;
41466;SDS011;72625;53.700;19.958;2024-03-22T12:33:59;15.00;;;13.90;;
41466;SDS011;72625;53.700;19.958;2024-03-22T12:39:03;18.50;;;17.30;;
41466;SDS011;72625;53.700;19.958;2024-03-22T12:44:06;13.90;;;12.90;;
41466;SDS011;72625;53.700;19.958;2024-03-22T12:49:10;10.80;;;10.10;;
41466;SDS011;72625;53.700;19.958;2024-03-22T12:54:14;11.60;;;10.80;;
41466;SDS011;72625;53.700;19.958;2024-03-22T14:00:49;15.20;;;14.00;;
41466;SDS011;72625;53.700;19.958;2024-03-22T14:05:59;14.90;;;13.80;;
41466;SDS011;72625;53.700;19.958;2024-03-22T14:11:10;13.00;;;12.00;;
41466;SDS011;72625;53.700;19.958;2024-03-22T14:16:21;13.10;;;12.10;;
41466;SDS011;72625;53.700;19.958;2024-03-22T14:21:23;13.20;;;12.20;;
41466;SDS011;72625;53.700;19.958;2024-03-22T14:26:37;16.20;;;15.00;;
41466;SDS011;72625;53.700;19.958;2024-03-22T14:31:57;14.50;;;13.50;;
41466;SDS011;72625;53.700;19.958;2024-03-22T14:36:59;13.20;;;12.30;;
41466;SDS011;72625;53.700;19.958;2024-03-22T14:42:07;16.80;;;15.60;;
41466;SDS011;72625;53.700;19.958;2024-03-22T14:47:29;15.30;;;14.20;;
41466;SDS011;72625;53.700;19.958;2024-03-22T14:52:39;14.70;;;13.60;;
41466;SDS011;72625;53.700;19.958;2024-03-22T14:57:41;14.60;;;13.60;;
41466;SDS011;72625;53.700;19.958;2024-03-22T15:02:47;13.80;;;12.80;;
41466;SDS011;72625;53.700;19.958;2024-03-22T15:07:57;15.60;;;14.50;;
41466;SDS011;72625;53.700;19.958;2024-03-22T15:13:00;16.30;;;15.20;;
41466;SDS011;72625;53.700;19.958;2024-03-22T15:18:05;13.70;;;12.60;;
41466;SDS011;72625;53.700;19.958;2024-03-22T15:23:13;14.50;;;13.50;;
41466;SDS011;72625;53.700;19.958;2024-03-22T15:28:33;13.10;;;12.20;;
41466;SDS011;72625;53.700;19.958;2024-03-22T15:33:36;15.20;;;14.10;;
41466;SDS011;72625;53.700;19.958;2024-03-22T15:38:38;15.70;;;14.60;;
41466;SDS011;72625;53.700;19.958;2024-03-22T15:43:46;16.60;;;15.50;;
41466;SDS011;72625;53.700;19.958;2024-03-22T15:48:48;16.40;;;15.10;;
41466;SDS011;72625;53.700;19.958;2024-03-22T15:54:01;16.90;;;15.70;;
41466;SDS011;72625;53.700;19.958;2024-03-22T15:59:06;16.30;;;15.20;;
41466;SDS011;72625;53.700;19.958;2024-03-22T16:04:08;23.60;;;22.10;;
41466;SDS011;72625;53.700;19.958;2024-03-22T16:09:18;22.70;;;21.10;;
41466;SDS011;72625;53.700;19.958;2024-03-22T16:14:20;28.30;;;26.40;;
41466;SDS011;72625;53.700;19.958;2024-03-22T16:19:32;24.50;;;22.80;;
41466;SDS011;72625;53.700;19.958;2024-03-22T16:24:34;25.10;;;23.30;;
41466;SDS011;72625;53.700;19.958;2024-03-22T16:29:39;20.20;;;18.70;;
41466;SDS011;72625;53.700;19.958;2024-03-22T16:34:51;19.40;;;18.00;;
41466;SDS011;72625;53.700;19.958;2024-03-22T16:39:53;17.90;;;16.60;;
41466;SDS011;72625;53.700;19.958;2024-03-22T16:44:56;18.40;;;17.10;;
41466;SDS011;72625;53.700;19.958;2024-03-22T16:49:58;17.10;;;15.90;;
41466;SDS011;72625;53.700;19.958;2024-03-22T16:55:03;17.50;;;16.20;;
41466;SDS011;72625;53.700;19.958;2024-03-22T17:00:06;18.30;;;16.90;;
41466;SDS011;72625;53.700;19.958;2024-03-22T17:05:12;16.20;;;15.00;;
41466;SDS011;72625;53.700;19.958;2024-03-22T17:10:14;17.40;;;16.20;;
41466;SDS011;72625;53.700;19.958;2024-03-22T17:15:17;19.10;;;17.60;;
41466;SDS011;72625;53.700;19.958;2024-03-22T17:20:20;18.70;;;17.30;;
41466;SDS011;72625;53.700;19.958;2024-03-22T17:25:32;18.60;;;17.30;;
41466;SDS011;72625;53.700;19.958;2024-03-22T17:30:35;21.10;;;19.70;;
41466;SDS011;72625;53.700;19.958;2024-03-22T17:35:37;20.60;;;19.10;;
41466;SDS011;72625;53.700;19.958;2024-03-22T17:40:40;19.30;;;17.90;;
41466;SDS011;72625;53.700;19.958;2024-03-22T17:45:43;17.90;;;16.60;;
41466;SDS011;72625;53.700;19.958;2024-03-22T17:50:48;31.70;;;29.40;;
41466;SDS011;72625;53.700;19.958;2024-03-22T17:55:53;21.00;;;19.60;;
41466;SDS011;72625;53.700;19.958;2024-03-22T18:00:55;19.80;;;18.40;;
41466;SDS011;72625;53.700;19.958;2024-03-22T18:05:57;26.30;;;24.30;;
41466;SDS011;72625;53.700;19.958;2024-03-22T18:11:08;28.90;;;26.80;;
41466;SDS011;72625;53.700;19.958;2024-03-22T18:16:29;24.40;;;22.60;;
41466;SDS011;72625;53.700;19.958;2024-03-22T18:21:37;29.20;;;27.00;;
41466;SDS011;72625;53.700;19.958;2024-03-22T18:26:42;60.60;;;55.90;;
41466;SDS011;72625;53.700;19.958;2024-03-22T18:31:44;49.70;;;45.70;;
41466;SDS011;72625;53.700;19.958;2024-03-22T18:36:46;35.70;;;32.80;;
41466;SDS011;72625;53.700;19.958;2024-03-22T18:41:51;42.20;;;38.50;;
41466;SDS011;72625;53.700;19.958;2024-03-22T18:46:54;36.80;;;34.00;;
41466;SDS011;72625;53.700;19.958;2024-03-22T18:51:58;29.40;;;27.20;;
41466;SDS011;72625;53.700;19.958;2024-03-22T18:57:04;21.90;;;20.40;;
41466;SDS011;72625;53.700;19.958;2024-03-22T19:02:12;22.50;;;20.80;;
41466;SDS011;72625;53.700;19.958;2024-03-22T19:07:16;17.00;;;15.70;;
41466;SDS011;72625;53.700;19.958;2024-03-22T19:12:21;19.50;;;17.90;;
41466;SDS011;72625;53.700;19.958;2024-03-22T19:17:30;19.70;;;18.20;;
41466;SDS011;72625;53.700;19.958;2024-03-22T19:22:32;19.80;;;18.30;;
41466;SDS011;72625;53.700;19.958;2024-03-22T19:27:44;18.80;;;17.20;;
41466;SDS011;72625;53.700;19.958;2024-03-22T19:32:46;17.00;;;15.70;;
41466;SDS011;72625;53.700;19.958;2024-03-22T19:37:52;16.20;;;15.00;;
41466;SDS011;72625;53.700;19.958;2024-03-22T19:43:01;17.40;;;16.00;;
41466;SDS011;72625;53.700;19.958;2024-03-22T19:48:05;16.30;;;15.00;;
41466;SDS011;72625;53.700;19.958;2024-03-22T19:53:16;16.60;;;15.30;;
41466;SDS011;72625;53.700;19.958;2024-03-22T19:58:31;18.10;;;16.70;;
41466;SDS011;72625;53.700;19.958;2024-03-22T20:03:37;18.40;;;17.00;;
41466;SDS011;72625;53.700;19.958;2024-03-22T20:08:39;17.10;;;15.70;;
41466;SDS011;72625;53.700;19.958;2024-03-22T20:13:41;16.50;;;15.20;;
41466;SDS011;72625;53.700;19.958;2024-03-22T20:18:49;16.40;;;15.20;;
41466;SDS011;72625;53.700;19.958;2024-03-22T20:23:52;19.10;;;17.70;;
41466;SDS011;72625;53.700;19.958;2024-03-22T20:28:54;19.90;;;18.40;;
41466;SDS011;72625;53.700;19.958;2024-03-22T20:33:59;21.20;;;19.60;;
